createdAt,value
2023-01-21T00:01:22.056Z,1.00
2023-01-21T00:03:50.714Z,1.00
2023-01-21T00:06:19.272Z,1.00
2023-01-21T00:08:47.700Z,1.00
2023-01-21T00:11:17.475Z,1.00
2023-01-21T00:13:46.604Z,1.00
2023-01-21T00:16:16.108Z,1.00
2023-01-21T00:18:44.589Z,1.00
2023-01-21T00:21:13.080Z,1.00
2023-01-21T00:23:41.736Z,1.00
2023-01-21T00:26:13.112Z,1.00
2023-01-21T00:28:45.173Z,1.00
2023-01-21T00:31:14.151Z,1.00
2023-01-21T00:33:42.606Z,1.00
2023-01-21T00:36:15.605Z,1.00
2023-01-21T00:38:45.086Z,1.00
2023-01-21T00:41:14.899Z,1.00
2023-01-21T00:43:44.052Z,7.20
2023-01-21T00:46:13.103Z,12.10
2023-01-21T00:48:41.565Z,13.70
2023-01-21T00:51:10.609Z,7.60
2023-01-21T00:53:42.853Z,1.70
2023-01-21T00:56:14.067Z,2.20
2023-01-21T00:58:46.025Z,4.30
2023-01-21T01:01:27.707Z,4.60
2023-01-21T01:03:56.111Z,2.80
2023-01-21T01:06:25.623Z,1.00
2023-01-21T01:08:55.233Z,1.00
2023-01-21T01:11:25.283Z,2.10
2023-01-21T01:13:57.374Z,1.00
2023-01-21T01:16:26.245Z,5.90
2023-01-21T01:18:54.841Z,10.60
2023-01-21T01:21:24.221Z,9.80
2023-01-21T01:23:53.411Z,9.60
2023-01-21T01:26:23.219Z,13.70
2023-01-21T01:28:51.659Z,12.40
2023-01-21T01:31:22.208Z,13.50
2023-01-21T01:33:51.232Z,13.40
2023-01-21T01:36:24.406Z,5.00
2023-01-21T01:38:54.151Z,11.40
2023-01-21T01:41:26.216Z,16.10
2023-01-21T01:44:04.779Z,16.30
2023-01-21T01:46:37.807Z,18.40
2023-01-21T01:49:15.102Z,25.40
2023-01-21T01:52:05.283Z,25.90
2023-01-21T01:54:37.947Z,24.60
2023-01-21T01:57:10.728Z,33.20
2023-01-21T01:59:40.748Z,38.40
2023-01-21T02:02:12.634Z,28.70
2023-01-21T02:04:55.561Z,26.80
2023-01-21T02:07:26.135Z,23.90
2023-01-21T02:09:55.769Z,30.10
2023-01-21T02:12:24.627Z,26.20
2023-01-21T02:14:53.151Z,26.00
2023-01-21T02:17:42.854Z,28.10
2023-01-21T02:20:41.203Z,24.40
2023-01-21T02:23:28.301Z,25.50
2023-01-21T02:26:05.717Z,23.80
2023-01-21T02:28:34.160Z,22.90
2023-01-21T02:31:23.688Z,22.00
2023-01-21T02:34:05.175Z,14.30
2023-01-21T02:37:14.873Z,9.10
2023-01-21T02:40:08.172Z,11.70
2023-01-21T02:42:39.686Z,32.30
2023-01-21T02:45:11.651Z,36.90
2023-01-21T02:48:14.888Z,49.70
2023-01-21T02:50:55.662Z,62.40
2023-01-21T02:53:29.792Z,68.10
2023-01-21T02:56:16.866Z,74.50
2023-01-21T02:58:56.568Z,73.40
2023-01-21T03:01:57.049Z,72.90
2023-01-21T03:05:04.627Z,84.20
2023-01-21T03:07:47.133Z,94.40
2023-01-21T03:10:33.774Z,91.40
2023-01-21T03:13:12.063Z,99.90
2023-01-21T03:16:16.495Z,99.90
2023-01-21T03:18:51.020Z,99.90
2023-01-21T03:21:26.531Z,99.90
2023-01-21T03:23:56.918Z,99.90
2023-01-21T03:26:33.479Z,99.90
2023-01-21T03:29:10.804Z,99.90
2023-01-21T03:31:41.121Z,99.90
2023-01-21T03:34:12.683Z,99.90
2023-01-21T03:36:59.485Z,99.90
2023-01-21T03:39:49.405Z,99.90
2023-01-21T03:42:18.515Z,99.90
2023-01-21T03:44:47.778Z,99.90
2023-01-21T03:47:32.628Z,99.90
2023-01-21T03:50:09.727Z,99.90
2023-01-21T03:52:43.007Z,99.90
2023-01-21T03:55:12.768Z,99.90
2023-01-21T03:57:41.653Z,99.90
2023-01-21T04:00:11.119Z,99.90
2023-01-21T04:02:40.030Z,99.90
2023-01-21T04:05:08.788Z,99.90
2023-01-21T04:07:37.257Z,99.90
2023-01-21T04:10:05.971Z,99.90
2023-01-21T04:12:34.468Z,99.90
2023-01-21T04:15:05.397Z,99.90
2023-01-21T04:17:34.003Z,99.90
2023-01-21T04:20:02.561Z,99.90
2023-01-21T04:22:30.950Z,99.90
2023-01-21T04:24:59.352Z,99.90
2023-01-21T04:27:27.799Z,99.90
2023-01-21T04:29:56.206Z,99.90
2023-01-21T04:32:24.617Z,99.90
2023-01-21T04:34:53.143Z,99.90
2023-01-21T04:37:21.569Z,99.90
2023-01-21T04:39:49.987Z,99.90
2023-01-21T04:42:18.491Z,99.90
2023-01-21T04:44:46.947Z,99.90
2023-01-21T04:47:15.386Z,99.90
2023-01-21T04:49:43.821Z,99.90
2023-01-21T04:52:12.388Z,99.90
2023-01-21T04:54:41.268Z,99.90
2023-01-21T04:57:09.853Z,99.90
2023-01-21T04:59:38.569Z,99.90
2023-01-21T05:02:06.992Z,99.90
2023-01-21T05:04:35.529Z,99.90
2023-01-21T05:07:04.160Z,99.90
2023-01-21T05:09:32.590Z,99.90
2023-01-21T05:12:01.090Z,99.90
2023-01-21T05:14:29.542Z,99.90
2023-01-21T05:16:59.012Z,99.10
2023-01-21T05:19:27.499Z,99.90
2023-01-21T05:21:56.247Z,99.90
2023-01-21T05:24:24.652Z,99.90
2023-01-21T05:26:53.428Z,99.90
2023-01-21T05:29:21.837Z,99.90
2023-01-21T05:31:50.315Z,99.90
2023-01-21T05:34:18.794Z,99.90
2023-01-21T05:36:47.251Z,99.90
2023-01-21T05:39:15.731Z,99.70
2023-01-21T05:41:44.206Z,99.90
2023-01-21T05:44:12.719Z,99.90
2023-01-21T05:46:41.130Z,99.90
2023-01-21T05:49:10.211Z,99.90
2023-01-21T05:51:38.658Z,99.30
2023-01-21T05:54:07.328Z,99.50
2023-01-21T05:56:35.796Z,98.80
2023-01-21T05:59:04.416Z,96.60
2023-01-21T06:01:32.822Z,95.90
2023-01-21T06:04:01.652Z,99.90
2023-01-21T06:06:30.051Z,99.90
2023-01-21T06:08:58.541Z,99.90
2023-01-21T06:11:27.118Z,99.90
2023-01-21T06:13:55.511Z,99.90
2023-01-21T06:16:23.961Z,99.90
2023-01-21T06:18:52.408Z,99.90
2023-01-21T06:21:21.031Z,99.90
2023-01-21T06:23:49.443Z,99.90
2023-01-21T06:26:18.089Z,99.90
2023-01-21T06:28:46.606Z,99.90
2023-01-21T06:31:15.578Z,99.90
2023-01-21T06:33:44.158Z,99.90
2023-01-21T06:36:12.632Z,99.90
2023-01-21T06:38:41.052Z,99.90
2023-01-21T06:41:09.474Z,99.90
2023-01-21T06:43:37.996Z,99.90
2023-01-21T06:46:06.674Z,99.90
2023-01-21T06:48:35.226Z,99.90
2023-01-21T06:51:03.974Z,99.90
2023-01-21T06:53:32.446Z,99.90
2023-01-21T06:56:01.287Z,99.90
2023-01-21T06:58:29.758Z,99.90
2023-01-21T07:00:58.639Z,99.90
2023-01-21T07:03:27.087Z,99.90
2023-01-21T07:05:55.539Z,99.90
2023-01-21T07:08:23.982Z,99.90
2023-01-21T07:10:52.584Z,99.90
2023-01-21T07:13:21.469Z,99.90
2023-01-21T07:15:50.004Z,99.90
2023-01-21T07:18:18.448Z,99.90
2023-01-21T07:20:46.896Z,99.90
2023-01-21T07:23:15.624Z,99.90
2023-01-21T07:25:44.015Z,99.90
2023-01-21T07:28:12.595Z,99.90
2023-01-21T07:30:41.072Z,99.90
2023-01-21T07:33:11.153Z,99.90
2023-01-21T07:35:39.717Z,99.90
2023-01-21T07:38:08.152Z,99.90
2023-01-21T07:40:36.638Z,99.90
2023-01-21T07:43:05.118Z,99.90
2023-01-21T07:45:33.940Z,99.90
2023-01-21T07:48:02.378Z,99.90
2023-01-21T07:50:31.306Z,99.90
2023-01-21T07:53:00.516Z,99.90
2023-01-21T07:55:30.575Z,99.90
2023-01-21T07:58:00.174Z,99.90
2023-01-21T08:00:29.985Z,99.90
2023-01-21T08:02:59.509Z,99.90
2023-01-21T08:05:28.449Z,99.90
2023-01-21T08:07:59.480Z,99.90
2023-01-21T08:10:28.267Z,99.90
2023-01-21T08:12:56.668Z,99.90
2023-01-21T08:15:25.133Z,99.90
2023-01-21T08:17:53.559Z,99.90
2023-01-21T08:20:22.000Z,99.90
2023-01-21T08:22:50.479Z,99.90
2023-01-21T08:25:19.408Z,99.90
2023-01-21T08:27:47.960Z,99.90
2023-01-21T08:30:16.844Z,99.90
2023-01-21T08:32:46.931Z,99.90
2023-01-21T08:35:15.751Z,99.90
2023-01-21T08:37:44.559Z,99.90
2023-01-21T08:40:13.505Z,99.90
2023-01-21T08:42:41.911Z,99.90
2023-01-21T08:45:11.024Z,99.90
2023-01-21T08:47:39.439Z,99.90
2023-01-21T08:50:08.712Z,99.90
2023-01-21T08:52:37.341Z,99.90
2023-01-21T08:55:05.942Z,99.90
2023-01-21T08:57:34.620Z,99.90
2023-01-21T09:00:03.079Z,99.90
2023-01-21T09:02:31.583Z,99.90
2023-01-21T09:05:00.052Z,99.90
2023-01-21T09:07:28.539Z,99.90
2023-01-21T09:09:56.963Z,99.90
2023-01-21T09:12:25.437Z,99.90
2023-01-21T09:14:53.886Z,99.90
2023-01-21T09:17:23.602Z,99.90
2023-01-21T09:19:53.591Z,99.90
2023-01-21T09:22:23.152Z,99.90
2023-01-21T09:24:51.600Z,99.90
2023-01-21T09:27:20.260Z,99.90
2023-01-21T09:29:48.688Z,99.90
2023-01-21T09:32:17.543Z,99.90
2023-01-21T09:34:45.944Z,99.90
2023-01-21T09:37:14.407Z,99.90
2023-01-21T09:39:42.891Z,99.90
2023-01-21T09:42:26.376Z,99.90
2023-01-21T09:44:57.725Z,99.90
2023-01-21T09:47:41.795Z,99.90
2023-01-21T09:50:15.219Z,99.90
2023-01-21T09:52:56.187Z,99.90
2023-01-21T09:55:50.688Z,99.90
2023-01-21T09:58:28.547Z,99.90
2023-01-21T10:01:14.581Z,99.90
2023-01-21T10:04:03.076Z,99.90
2023-01-21T10:06:50.313Z,99.90
2023-01-21T10:09:44.570Z,99.90
2023-01-21T10:12:26.491Z,99.90
2023-01-21T10:15:07.154Z,99.90
2023-01-21T10:17:52.712Z,99.90
2023-01-21T10:20:31.169Z,99.90
2023-01-21T10:23:48.918Z,99.90
2023-01-21T10:26:17.763Z,99.90
2023-01-21T10:28:51.707Z,99.90
2023-01-21T10:31:29.486Z,99.90
2023-01-21T10:33:58.130Z,99.90
2023-01-21T10:36:34.997Z,99.90
2023-01-21T10:39:29.021Z,99.90
2023-01-21T10:42:16.106Z,99.90
2023-01-21T10:45:06.590Z,99.90
2023-01-21T10:47:48.565Z,99.90
2023-01-21T10:50:39.790Z,99.90
2023-01-21T10:53:26.396Z,99.90
2023-01-21T10:56:30.104Z,99.90
2023-01-21T10:59:06.126Z,99.90
2023-01-21T11:01:38.388Z,99.90
2023-01-21T11:04:22.321Z,99.90
2023-01-21T11:07:07.540Z,99.90
2023-01-21T11:09:46.450Z,99.90
2023-01-21T11:12:20.630Z,99.90
2023-01-21T11:15:14.513Z,99.90
2023-01-21T11:17:46.038Z,99.90
2023-01-21T11:20:19.223Z,99.90
2023-01-21T11:22:49.880Z,99.90
2023-01-21T11:25:55.113Z,99.90
2023-01-21T11:28:33.052Z,99.90
2023-01-21T11:31:27.374Z,99.90
2023-01-21T11:33:56.818Z,99.90
2023-01-21T11:36:25.267Z,99.90
2023-01-21T11:39:07.438Z,99.90
2023-01-21T11:41:35.968Z,99.90
2023-01-21T11:44:18.620Z,99.90
2023-01-21T11:46:47.319Z,99.90
2023-01-21T11:49:20.792Z,99.90
2023-01-21T11:51:49.443Z,99.90
2023-01-21T11:54:23.567Z,99.90
2023-01-21T11:57:03.328Z,99.90
2023-01-21T11:59:36.807Z,99.90
2023-01-21T12:02:16.709Z,99.90
2023-01-21T12:04:51.954Z,99.90
2023-01-21T12:07:35.035Z,99.90
2023-01-21T12:10:15.174Z,99.90
2023-01-21T12:13:07.229Z,99.90
2023-01-21T12:16:04.263Z,99.90
2023-01-21T12:19:03.794Z,99.90
2023-01-21T12:22:02.834Z,99.90
2023-01-21T12:24:31.245Z,99.90
2023-01-21T12:27:03.199Z,99.90
2023-01-21T12:29:57.220Z,99.90
2023-01-21T12:32:35.711Z,99.90
2023-01-21T12:35:19.378Z,99.90
2023-01-21T12:38:20.606Z,99.90
2023-01-21T12:40:59.638Z,99.90
2023-01-21T12:43:38.115Z,99.90
2023-01-21T12:46:35.840Z,99.90
2023-01-21T12:49:18.669Z,99.90
2023-01-21T12:52:02.287Z,99.90
2023-01-21T12:54:38.706Z,99.90
2023-01-21T12:57:42.300Z,99.90
2023-01-21T13:00:16.953Z,99.90
2023-01-21T13:03:20.654Z,99.90
2023-01-21T13:06:12.542Z,99.90
2023-01-21T13:09:04.185Z,99.90
2023-01-21T13:11:51.109Z,99.90
2023-01-21T13:14:36.151Z,99.90
2023-01-21T13:17:35.626Z,99.90
2023-01-21T13:20:16.600Z,99.90
2023-01-21T13:23:16.863Z,99.90
2023-01-21T13:26:06.560Z,99.90
2023-01-21T13:29:15.093Z,99.90
2023-01-21T13:32:11.448Z,99.90
2023-01-21T13:34:57.613Z,99.90
2023-01-21T13:37:28.975Z,99.90
2023-01-21T13:40:15.893Z,99.90
2023-01-21T13:42:54.433Z,99.90
2023-01-21T13:45:34.940Z,99.90
2023-01-21T13:48:06.935Z,99.90
2023-01-21T13:51:01.822Z,99.90
2023-01-21T13:54:12.386Z,99.90
2023-01-21T13:57:07.251Z,99.90
2023-01-21T14:00:19.550Z,99.90
2023-01-21T14:03:17.642Z,99.90
2023-01-21T14:05:52.478Z,99.90
2023-01-21T14:08:44.121Z,99.90
2023-01-21T14:11:33.149Z,99.90
2023-01-21T14:14:41.386Z,99.90
2023-01-21T14:17:32.976Z,99.90
2023-01-21T14:20:13.355Z,99.90
2023-01-21T14:22:55.759Z,99.90
2023-01-21T14:25:24.220Z,99.90
2023-01-21T14:28:14.041Z,99.90
2023-01-21T14:31:07.490Z,99.90
2023-01-21T14:33:52.333Z,99.90
2023-01-21T14:36:25.203Z,99.90
2023-01-21T14:39:25.740Z,99.90
2023-01-21T14:41:57.340Z,99.90
2023-01-21T14:44:44.130Z,99.90
2023-01-21T14:47:23.757Z,99.90
2023-01-21T14:49:54.418Z,99.90
2023-01-21T14:52:33.321Z,99.90
2023-01-21T14:55:03.039Z,99.90
2023-01-21T14:57:35.123Z,99.90
2023-01-21T15:00:09.179Z,99.90
2023-01-21T15:02:45.151Z,99.90
2023-01-21T15:05:39.155Z,99.90
2023-01-21T15:08:14.874Z,99.90
2023-01-21T15:10:44.003Z,99.90
2023-01-21T15:13:34.078Z,99.90
2023-01-21T15:16:34.662Z,99.90
2023-01-21T15:19:12.200Z,99.90
2023-01-21T15:21:46.802Z,99.90
2023-01-21T15:24:27.723Z,99.90
2023-01-21T15:27:22.105Z,99.90
2023-01-21T15:29:57.603Z,99.90
2023-01-21T15:32:47.588Z,99.90
2023-01-21T15:35:48.234Z,99.90
2023-01-21T15:38:18.271Z,99.90
2023-01-21T15:40:52.918Z,99.90
2023-01-21T15:43:50.423Z,99.90
2023-01-21T15:46:33.728Z,99.90
2023-01-21T15:49:22.743Z,99.90
2023-01-21T15:52:26.040Z,99.90
2023-01-21T15:55:09.665Z,99.90
2023-01-21T15:57:53.437Z,99.90
2023-01-21T16:00:35.299Z,99.90
2023-01-21T16:03:25.675Z,99.90
2023-01-21T16:06:29.396Z,99.90
2023-01-21T16:09:06.879Z,99.90
2023-01-21T16:12:06.345Z,99.90
2023-01-21T16:15:18.420Z,99.90
2023-01-21T16:17:59.464Z,99.90
2023-01-21T16:20:28.345Z,99.90
2023-01-21T16:23:01.726Z,99.90
2023-01-21T16:25:30.274Z,99.90
2023-01-21T16:27:58.773Z,99.90
2023-01-21T16:30:32.799Z,99.90
2023-01-21T16:33:15.680Z,99.90
2023-01-21T16:35:51.207Z,99.90
2023-01-21T16:38:22.750Z,99.90
2023-01-21T16:41:00.739Z,99.90
2023-01-21T16:43:29.700Z,99.90
2023-01-21T16:46:05.686Z,99.90
2023-01-21T16:48:35.407Z,99.90
2023-01-21T16:51:04.520Z,99.90
2023-01-21T16:53:33.001Z,99.90
2023-01-21T16:56:01.649Z,99.90
2023-01-21T16:58:33.413Z,99.90
2023-01-21T17:01:09.948Z,99.90
2023-01-21T17:03:39.455Z,99.90
2023-01-21T17:06:13.501Z,99.90
2023-01-21T17:08:42.394Z,99.90
2023-01-21T17:11:12.871Z,99.90
2023-01-21T17:13:44.341Z,99.90
2023-01-21T17:16:26.515Z,99.90
2023-01-21T17:18:59.776Z,99.90
2023-01-21T17:21:48.051Z,99.90
2023-01-21T17:24:28.354Z,99.90
2023-01-21T17:27:09.951Z,99.90
2023-01-21T17:29:39.547Z,99.90
2023-01-21T17:32:27.849Z,99.90
2023-01-21T17:35:15.575Z,99.90
2023-01-21T17:37:44.644Z,99.90
2023-01-21T17:40:42.826Z,99.90
2023-01-21T17:43:23.656Z,99.90
2023-01-21T17:45:54.344Z,99.90
2023-01-21T17:48:33.465Z,99.90
2023-01-21T17:51:26.504Z,99.90
2023-01-21T17:54:01.688Z,99.90
2023-01-21T17:56:40.940Z,99.90
2023-01-21T17:59:40.269Z,99.90
2023-01-21T18:02:18.344Z,99.90
2023-01-21T18:04:47.235Z,99.90
2023-01-21T18:07:23.630Z,99.90
2023-01-21T18:09:59.751Z,99.90
2023-01-21T18:12:28.458Z,99.90
2023-01-21T18:14:56.861Z,99.90
2023-01-21T18:17:26.570Z,99.90
2023-01-21T18:19:57.719Z,99.90
2023-01-21T18:22:31.295Z,99.90
2023-01-21T18:25:01.283Z,99.90
2023-01-21T18:27:30.070Z,99.90
2023-01-21T18:29:59.725Z,99.90
2023-01-21T18:32:28.201Z,99.90
2023-01-21T18:34:57.046Z,99.90
2023-01-21T18:37:26.866Z,99.90
2023-01-21T18:39:55.315Z,99.90
2023-01-21T18:42:24.427Z,99.90
2023-01-21T18:44:52.848Z,99.90
2023-01-21T18:47:21.503Z,99.90
2023-01-21T18:49:51.697Z,99.90
2023-01-21T18:52:21.625Z,99.90
2023-01-21T18:54:50.130Z,99.90
2023-01-21T18:57:23.678Z,99.90
2023-01-21T18:59:52.100Z,99.90
2023-01-21T19:02:22.130Z,99.90
2023-01-21T19:04:51.317Z,99.90
2023-01-21T19:07:24.612Z,99.90
2023-01-21T19:09:53.184Z,99.90
2023-01-21T19:12:23.743Z,99.90
2023-01-21T19:14:52.424Z,99.90
2023-01-21T19:17:29.667Z,99.90
2023-01-21T19:19:58.565Z,99.90
2023-01-21T19:22:27.140Z,99.90
2023-01-21T19:24:55.567Z,99.90
2023-01-21T19:27:36.538Z,99.90
2023-01-21T19:30:12.359Z,99.90
2023-01-21T19:32:40.788Z,99.90
2023-01-21T19:35:10.184Z,99.90
2023-01-21T19:37:41.731Z,99.90
2023-01-21T19:40:20.112Z,99.90
2023-01-21T19:42:49.464Z,99.90
2023-01-21T19:45:19.209Z,99.90
2023-01-21T19:47:50.254Z,99.90
2023-01-21T19:50:21.488Z,99.90
2023-01-21T19:52:51.715Z,99.90
2023-01-21T19:55:25.685Z,99.90
2023-01-21T19:58:00.913Z,99.90
2023-01-21T20:00:32.420Z,99.90
2023-01-21T20:03:01.234Z,99.90
2023-01-21T20:05:34.519Z,99.90
2023-01-21T20:08:03.692Z,99.90
2023-01-21T20:10:32.673Z,99.90
2023-01-21T20:13:01.377Z,99.90
2023-01-21T20:15:32.544Z,99.90
2023-01-21T20:18:03.672Z,99.90
2023-01-21T20:20:34.358Z,99.90
2023-01-21T20:23:03.019Z,99.90
2023-01-21T20:25:38.714Z,99.90
2023-01-21T20:28:24.078Z,99.90
2023-01-21T20:30:54.796Z,99.90
2023-01-21T20:33:27.220Z,99.90
2023-01-21T20:35:57.548Z,99.90
2023-01-21T20:38:32.470Z,99.90
2023-01-21T20:41:02.716Z,99.90
2023-01-21T20:43:31.271Z,99.90
2023-01-21T20:46:04.768Z,99.90
2023-01-21T20:48:42.155Z,99.90
2023-01-21T20:51:11.463Z,99.90
2023-01-21T20:53:40.738Z,99.90
2023-01-21T20:56:27.664Z,99.90
2023-01-21T20:58:56.248Z,99.90
2023-01-21T21:01:25.946Z,99.90
2023-01-21T21:03:54.767Z,99.90
2023-01-21T21:06:27.524Z,99.90
2023-01-21T21:08:56.590Z,99.90
2023-01-21T21:11:26.618Z,99.90
2023-01-21T21:13:55.042Z,99.90
2023-01-21T21:16:32.671Z,99.90
2023-01-21T21:19:02.063Z,99.90
2023-01-21T21:21:30.591Z,99.90
2023-01-21T21:23:59.080Z,99.90
2023-01-21T21:26:30.135Z,99.90
2023-01-21T21:29:00.982Z,99.90
2023-01-21T21:31:33.638Z,99.90
2023-01-21T21:34:02.156Z,99.90
2023-01-21T21:36:31.080Z,99.90
2023-01-21T21:39:00.927Z,99.90
2023-01-21T21:41:47.787Z,99.90
2023-01-21T21:44:16.216Z,99.90
2023-01-21T21:47:02.924Z,99.90
2023-01-21T21:49:31.505Z,99.90
2023-01-21T21:52:02.784Z,99.90
2023-01-21T21:54:31.934Z,99.90
2023-01-21T21:57:00.385Z,99.90
2023-01-21T21:59:28.860Z,99.90
2023-01-21T22:01:57.693Z,99.90
2023-01-21T22:04:26.140Z,99.90
2023-01-21T22:06:54.569Z,99.90
2023-01-21T22:09:23.108Z,99.90
2023-01-21T22:11:51.510Z,99.90
2023-01-21T22:14:19.976Z,99.90
2023-01-21T22:16:50.820Z,99.90
2023-01-21T22:19:19.361Z,99.90
2023-01-21T22:21:48.457Z,99.90
2023-01-21T22:24:16.870Z,99.90
2023-01-21T22:26:45.637Z,99.90
2023-01-21T22:29:14.197Z,98.90
2023-01-21T22:31:43.265Z,85.00
2023-01-21T22:34:12.749Z,88.90
2023-01-21T22:36:43.059Z,81.90
2023-01-21T22:39:12.966Z,80.60
2023-01-21T22:41:41.360Z,56.40
2023-01-21T22:44:09.877Z,42.60
2023-01-21T22:46:38.333Z,28.60
2023-01-21T22:49:07.418Z,16.10
2023-01-21T22:51:35.848Z,17.60
2023-01-21T22:54:04.347Z,21.20
2023-01-21T22:56:50.535Z,27.30
2023-01-21T22:59:20.386Z,28.40
2023-01-21T23:01:51.662Z,28.40
2023-01-21T23:04:20.828Z,38.10
2023-01-21T23:06:50.891Z,49.10
2023-01-21T23:09:19.383Z,54.40
2023-01-21T23:11:48.030Z,46.20
2023-01-21T23:14:17.370Z,76.00
2023-01-21T23:16:46.175Z,86.80
2023-01-21T23:19:15.232Z,75.40
2023-01-21T23:21:43.739Z,70.80
2023-01-21T23:24:12.739Z,68.10
2023-01-21T23:26:41.192Z,66.00
2023-01-21T23:29:09.601Z,61.20
2023-01-21T23:31:38.128Z,67.60
2023-01-21T23:34:06.731Z,71.20
2023-01-21T23:36:35.284Z,60.00
2023-01-21T23:39:03.675Z,57.60
2023-01-21T23:41:32.699Z,62.30
2023-01-21T23:44:02.627Z,63.60
2023-01-21T23:46:31.738Z,58.50
2023-01-21T23:49:00.670Z,61.50
2023-01-21T23:51:29.119Z,61.80
2023-01-21T23:53:57.929Z,64.70
2023-01-21T23:56:27.373Z,65.80
2023-01-21T23:58:55.909Z,67.90
